sensor_id;sensor_type;location;lat;lon;timestamp;P1;durP1;ratioP1;P2;durP2;ratioP2
38637;SDS011;24401;53.034;-3.030;2023-04-15T14:55:52;2.33;;;1.13;;
38637;SDS011;24401;53.034;-3.030;2023-04-15T14:58:22;5.80;;;1.20;;
38637;SDS011;24401;53.034;-3.030;2023-04-15T15:00:53;0.90;;;0.90;;
38637;SDS011;24401;53.034;-3.030;2023-04-15T15:03:23;1.30;;;1.10;;
38637;SDS011;24401;53.034;-3.030;2023-04-15T15:05:53;1.37;;;1.27;;
38637;SDS011;24401;53.034;-3.030;2023-04-15T15:08:24;1.10;;;1.10;;
38637;SDS011;24401;53.034;-3.030;2023-04-15T15:10:54;1.20;;;1.10;;
38637;SDS011;24401;53.034;-3.030;2023-04-15T15:13:24;1.00;;;0.90;;
38637;SDS011;24401;53.034;-3.030;2023-04-15T15:15:55;1.60;;;1.10;;
38637;SDS011;24401;53.034;-3.030;2023-04-15T15:18:25;1.25;;;1.15;;
38637;SDS011;24401;53.034;-3.030;2023-04-15T15:20:56;1.00;;;1.00;;
38637;SDS011;24401;53.034;-3.030;2023-04-15T15:23:26;1.00;;;1.00;;
38637;SDS011;24401;53.034;-3.030;2023-04-15T15:25:57;1.13;;;1.10;;
38637;SDS011;24401;53.034;-3.030;2023-04-15T15:28:27;0.95;;;0.95;;
38637;SDS011;24401;53.034;-3.030;2023-04-15T15:30:57;1.30;;;1.20;;
38637;SDS011;24401;53.034;-3.030;2023-04-15T15:33:27;1.37;;;1.23;;
38637;SDS011;24401;53.034;-3.030;2023-04-15T15:35:58;1.30;;;1.17;;
38637;SDS011;24401;53.034;-3.030;2023-04-15T15:38:28;1.00;;;1.00;;
38637;SDS011;24401;53.034;-3.030;2023-04-15T15:40:58;1.40;;;1.30;;
38637;SDS011;24401;53.034;-3.030;2023-04-15T15:43:28;0.87;;;0.87;;
38637;SDS011;24401;53.034;-3.030;2023-04-15T15:45:59;1.03;;;1.03;;
38637;SDS011;24401;53.034;-3.030;2023-04-15T15:48:30;1.20;;;1.10;;
38637;SDS011;24401;53.034;-3.030;2023-04-15T15:51:00;0.80;;;0.80;;
38637;SDS011;24401;53.034;-3.030;2023-04-15T15:53:30;1.03;;;1.00;;
38637;SDS011;24401;53.034;-3.030;2023-04-15T15:56:00;1.13;;;1.10;;
38637;SDS011;24401;53.034;-3.030;2023-04-15T15:58:33;1.27;;;1.10;;
38637;SDS011;24401;53.034;-3.030;2023-04-15T16:01:03;1.43;;;1.10;;
38637;SDS011;24401;53.034;-3.030;2023-04-15T16:03:33;1.00;;;1.00;;
38637;SDS011;24401;53.034;-3.030;2023-04-15T16:06:03;1.57;;;1.17;;
38637;SDS011;24401;53.034;-3.030;2023-04-15T16:08:34;1.40;;;1.30;;
38637;SDS011;24401;53.034;-3.030;2023-04-15T16:11:04;0.90;;;0.90;;
38637;SDS011;24401;53.034;-3.030;2023-04-15T16:13:34;1.23;;;1.13;;
38637;SDS011;24401;53.034;-3.030;2023-04-15T16:16:05;1.23;;;1.13;;
38637;SDS011;24401;53.034;-3.030;2023-04-15T16:18:35;0.90;;;0.90;;
38637;SDS011;24401;53.034;-3.030;2023-04-15T16:21:05;2.30;;;1.53;;
38637;SDS011;24401;53.034;-3.030;2023-04-15T16:23:36;1.30;;;1.20;;
38637;SDS011;24401;53.034;-3.030;2023-04-15T16:26:06;1.47;;;1.37;;
38637;SDS011;24401;53.034;-3.030;2023-04-15T16:28:36;0.90;;;0.90;;
38637;SDS011;24401;53.034;-3.030;2023-04-15T16:31:06;2.13;;;1.33;;
38637;SDS011;24401;53.034;-3.030;2023-04-15T16:33:37;1.30;;;1.20;;
38637;SDS011;24401;53.034;-3.030;2023-04-15T16:36:07;14.90;;;1.53;;
38637;SDS011;24401;53.034;-3.030;2023-04-15T16:38:37;1.20;;;1.10;;
38637;SDS011;24401;53.034;-3.030;2023-04-15T16:41:07;1.27;;;1.20;;
38637;SDS011;24401;53.034;-3.030;2023-04-15T16:43:38;1.10;;;1.10;;
38637;SDS011;24401;53.034;-3.030;2023-04-15T16:46:08;1.00;;;1.00;;
38637;SDS011;24401;53.034;-3.030;2023-04-15T16:48:38;8.50;;;1.20;;
38637;SDS011;24401;53.034;-3.030;2023-04-15T16:51:08;1.17;;;1.17;;
38637;SDS011;24401;53.034;-3.030;2023-04-15T16:53:39;1.30;;;1.20;;
38637;SDS011;24401;53.034;-3.030;2023-04-15T16:56:09;1.47;;;1.37;;
38637;SDS011;24401;53.034;-3.030;2023-04-15T16:58:39;1.37;;;1.27;;
38637;SDS011;24401;53.034;-3.030;2023-04-15T17:01:09;1.50;;;1.40;;
38637;SDS011;24401;53.034;-3.030;2023-04-15T17:03:40;1.50;;;1.40;;
38637;SDS011;24401;53.034;-3.030;2023-04-15T17:06:10;1.70;;;1.10;;
38637;SDS011;24401;53.034;-3.030;2023-04-15T17:08:40;5.30;;;1.57;;
38637;SDS011;24401;53.034;-3.030;2023-04-15T17:11:10;1.63;;;1.53;;
38637;SDS011;24401;53.034;-3.030;2023-04-15T17:13:41;1.30;;;1.20;;
38637;SDS011;24401;53.034;-3.030;2023-04-15T17:16:11;1.53;;;1.10;;
38637;SDS011;24401;53.034;-3.030;2023-04-15T17:18:41;1.23;;;1.20;;
38637;SDS011;24401;53.034;-3.030;2023-04-15T17:21:12;1.73;;;1.17;;
38637;SDS011;24401;53.034;-3.030;2023-04-15T17:23:42;1.60;;;1.33;;
38637;SDS011;24401;53.034;-3.030;2023-04-15T17:26:12;1.40;;;1.30;;
38637;SDS011;24401;53.034;-3.030;2023-04-15T17:28:42;1.20;;;1.10;;
38637;SDS011;24401;53.034;-3.030;2023-04-15T17:31:13;1.73;;;1.63;;
38637;SDS011;24401;53.034;-3.030;2023-04-15T17:33:43;1.43;;;1.20;;
38637;SDS011;24401;53.034;-3.030;2023-04-15T17:36:14;4.30;;;1.40;;
38637;SDS011;24401;53.034;-3.030;2023-04-15T17:38:44;1.77;;;1.67;;
38637;SDS011;24401;53.034;-3.030;2023-04-15T17:41:14;1.30;;;1.20;;
38637;SDS011;24401;53.034;-3.030;2023-04-15T17:43:45;2.70;;;1.73;;
38637;SDS011;24401;53.034;-3.030;2023-04-15T17:46:15;1.40;;;1.40;;
38637;SDS011;24401;53.034;-3.030;2023-04-15T17:48:45;2.00;;;1.80;;
38637;SDS011;24401;53.034;-3.030;2023-04-15T17:51:16;2.00;;;1.83;;
38637;SDS011;24401;53.034;-3.030;2023-04-15T17:53:46;2.07;;;1.60;;
38637;SDS011;24401;53.034;-3.030;2023-04-15T17:56:17;1.60;;;1.50;;
38637;SDS011;24401;53.034;-3.030;2023-04-15T17:58:47;1.57;;;1.40;;
38637;SDS011;24401;53.034;-3.030;2023-04-15T18:01:17;1.87;;;1.77;;
38637;SDS011;24401;53.034;-3.030;2023-04-15T18:03:47;1.67;;;1.57;;
38637;SDS011;24401;53.034;-3.030;2023-04-15T18:06:17;1.53;;;1.43;;
38637;SDS011;24401;53.034;-3.030;2023-04-15T18:08:50;1.77;;;1.67;;
38637;SDS011;24401;53.034;-3.030;2023-04-15T18:11:20;1.43;;;1.33;;
38637;SDS011;24401;53.034;-3.030;2023-04-15T18:13:50;1.57;;;1.47;;
38637;SDS011;24401;53.034;-3.030;2023-04-15T18:16:21;2.43;;;1.40;;
38637;SDS011;24401;53.034;-3.030;2023-04-15T18:18:51;1.67;;;1.57;;
38637;SDS011;24401;53.034;-3.030;2023-04-15T18:21:21;1.57;;;1.23;;
38637;SDS011;24401;53.034;-3.030;2023-04-15T18:23:51;1.97;;;1.80;;
38637;SDS011;24401;53.034;-3.030;2023-04-15T18:26:22;1.30;;;1.20;;
38637;SDS011;24401;53.034;-3.030;2023-04-15T18:28:52;1.70;;;1.60;;
38637;SDS011;24401;53.034;-3.030;2023-04-15T18:31:23;2.30;;;2.17;;
38637;SDS011;24401;53.034;-3.030;2023-04-15T18:33:53;3.30;;;1.83;;
38637;SDS011;24401;53.034;-3.030;2023-04-15T18:36:23;1.60;;;1.50;;
38637;SDS011;24401;53.034;-3.030;2023-04-15T18:38:54;2.47;;;2.27;;
38637;SDS011;24401;53.034;-3.030;2023-04-15T18:41:24;2.13;;;2.03;;
38637;SDS011;24401;53.034;-3.030;2023-04-15T18:43:55;2.27;;;2.07;;
38637;SDS011;24401;53.034;-3.030;2023-04-15T18:46:26;2.40;;;2.20;;
38637;SDS011;24401;53.034;-3.030;2023-04-15T18:48:56;4.25;;;2.20;;
38637;SDS011;24401;53.034;-3.030;2023-04-15T18:51:26;3.10;;;1.90;;
38637;SDS011;24401;53.034;-3.030;2023-04-15T18:53:57;3.20;;;3.00;;
38637;SDS011;24401;53.034;-3.030;2023-04-15T18:56:27;2.17;;;1.97;;
38637;SDS011;24401;53.034;-3.030;2023-04-15T18:58:57;1.70;;;1.60;;
38637;SDS011;24401;53.034;-3.030;2023-04-15T19:01:27;2.03;;;1.83;;
38637;SDS011;24401;53.034;-3.030;2023-04-15T19:03:57;2.13;;;1.70;;
38637;SDS011;24401;53.034;-3.030;2023-04-15T19:06:28;5.13;;;4.63;;
38637;SDS011;24401;53.034;-3.030;2023-04-15T19:08:58;1.97;;;1.87;;
38637;SDS011;24401;53.034;-3.030;2023-04-15T19:11:28;8.73;;;2.13;;
38637;SDS011;24401;53.034;-3.030;2023-04-15T19:13:59;2.00;;;1.90;;
38637;SDS011;24401;53.034;-3.030;2023-04-15T19:16:30;2.03;;;1.92;;
38637;SDS011;24401;53.034;-3.030;2023-04-15T19:19:00;3.23;;;2.70;;
38637;SDS011;24401;53.034;-3.030;2023-04-15T19:21:30;1.87;;;1.77;;
38637;SDS011;24401;53.034;-3.030;2023-04-15T19:24:01;2.27;;;2.13;;
38637;SDS011;24401;53.034;-3.030;2023-04-15T19:26:31;1.83;;;1.70;;
38637;SDS011;24401;53.034;-3.030;2023-04-15T19:29:02;1.77;;;1.30;;
38637;SDS011;24401;53.034;-3.030;2023-04-15T19:31:32;1.23;;;1.23;;
38637;SDS011;24401;53.034;-3.030;2023-04-15T19:34:02;2.40;;;2.20;;
38637;SDS011;24401;53.034;-3.030;2023-04-15T19:36:32;2.00;;;1.80;;
38637;SDS011;24401;53.034;-3.030;2023-04-15T19:39:03;6.23;;;2.00;;
38637;SDS011;24401;53.034;-3.030;2023-04-15T19:41:33;5.33;;;2.50;;
38637;SDS011;24401;53.034;-3.030;2023-04-15T19:44:03;2.30;;;2.20;;
38637;SDS011;24401;53.034;-3.030;2023-04-15T19:46:34;6.78;;;6.25;;
38637;SDS011;24401;53.034;-3.030;2023-04-15T19:49:04;18.33;;;16.73;;
38637;SDS011;24401;53.034;-3.030;2023-04-15T19:51:35;7.70;;;7.10;;
38637;SDS011;24401;53.034;-3.030;2023-04-15T19:54:05;12.37;;;11.17;;
38637;SDS011;24401;53.034;-3.030;2023-04-15T19:56:35;2.13;;;2.03;;
38637;SDS011;24401;53.034;-3.030;2023-04-15T19:59:06;2.90;;;2.73;;
38637;SDS011;24401;53.034;-3.030;2023-04-15T20:01:36;4.33;;;4.03;;
38637;SDS011;24401;53.034;-3.030;2023-04-15T20:04:06;2.20;;;2.10;;
38637;SDS011;24401;53.034;-3.030;2023-04-15T20:06:36;6.93;;;5.57;;
38637;SDS011;24401;53.034;-3.030;2023-04-15T20:09:06;6.30;;;5.70;;
38637;SDS011;24401;53.034;-3.030;2023-04-15T20:11:37;4.17;;;3.77;;
38637;SDS011;24401;53.034;-3.030;2023-04-15T20:14:07;7.00;;;4.77;;
38637;SDS011;24401;53.034;-3.030;2023-04-15T20:16:37;2.73;;;2.53;;
38637;SDS011;24401;53.034;-3.030;2023-04-15T20:19:07;2.13;;;1.47;;
38637;SDS011;24401;53.034;-3.030;2023-04-15T20:21:38;1.97;;;1.70;;
38637;SDS011;24401;53.034;-3.030;2023-04-15T20:24:08;1.80;;;1.70;;
38637;SDS011;24401;53.034;-3.030;2023-04-15T20:26:39;2.03;;;1.93;;
38637;SDS011;24401;53.034;-3.030;2023-04-15T20:29:09;5.53;;;2.20;;
38637;SDS011;24401;53.034;-3.030;2023-04-15T20:31:39;2.17;;;2.03;;
38637;SDS011;24401;53.034;-3.030;2023-04-15T20:34:12;2.78;;;2.08;;
38637;SDS011;24401;53.034;-3.030;2023-04-15T20:36:42;1.80;;;1.70;;
38637;SDS011;24401;53.034;-3.030;2023-04-15T20:39:12;3.67;;;3.37;;
38637;SDS011;24401;53.034;-3.030;2023-04-15T20:41:43;2.07;;;1.97;;
38637;SDS011;24401;53.034;-3.030;2023-04-15T20:44:13;2.50;;;2.27;;
38637;SDS011;24401;53.034;-3.030;2023-04-15T20:46:43;4.37;;;2.10;;
38637;SDS011;24401;53.034;-3.030;2023-04-15T20:49:13;2.00;;;1.57;;
38637;SDS011;24401;53.034;-3.030;2023-04-15T20:51:44;2.10;;;2.00;;
38637;SDS011;24401;53.034;-3.030;2023-04-15T20:54:14;2.37;;;2.17;;
38637;SDS011;24401;53.034;-3.030;2023-04-15T20:56:44;1.83;;;1.73;;
38637;SDS011;24401;53.034;-3.030;2023-04-15T20:59:15;2.23;;;1.83;;
38637;SDS011;24401;53.034;-3.030;2023-04-15T21:01:45;2.50;;;2.20;;
38637;SDS011;24401;53.034;-3.030;2023-04-15T21:04:15;2.00;;;1.90;;
38637;SDS011;24401;53.034;-3.030;2023-04-15T21:06:45;3.17;;;2.87;;
38637;SDS011;24401;53.034;-3.030;2023-04-15T21:09:16;5.20;;;2.73;;
38637;SDS011;24401;53.034;-3.030;2023-04-15T21:11:48;2.57;;;2.37;;
38637;SDS011;24401;53.034;-3.030;2023-04-15T21:14:18;2.22;;;2.13;;
38637;SDS011;24401;53.034;-3.030;2023-04-15T21:16:48;3.30;;;3.10;;
38637;SDS011;24401;53.034;-3.030;2023-04-15T21:19:18;2.53;;;2.33;;
38637;SDS011;24401;53.034;-3.030;2023-04-15T21:21:49;2.20;;;2.10;;
38637;SDS011;24401;53.034;-3.030;2023-04-15T21:24:19;3.60;;;2.80;;
38637;SDS011;24401;53.034;-3.030;2023-04-15T21:26:49;3.23;;;2.90;;
38637;SDS011;24401;53.034;-3.030;2023-04-15T21:29:20;2.13;;;1.93;;
38637;SDS011;24401;53.034;-3.030;2023-04-15T21:31:50;3.80;;;2.30;;
38637;SDS011;24401;53.034;-3.030;2023-04-15T21:34:20;2.70;;;2.50;;
38637;SDS011;24401;53.034;-3.030;2023-04-15T21:36:50;1.63;;;1.53;;
38637;SDS011;24401;53.034;-3.030;2023-04-15T21:39:21;4.60;;;2.10;;
38637;SDS011;24401;53.034;-3.030;2023-04-15T21:41:51;2.20;;;2.00;;
38637;SDS011;24401;53.034;-3.030;2023-04-15T21:44:21;2.40;;;2.13;;
38637;SDS011;24401;53.034;-3.030;2023-04-15T21:46:51;3.87;;;2.37;;
38637;SDS011;24401;53.034;-3.030;2023-04-15T21:49:21;1.70;;;1.60;;
38637;SDS011;24401;53.034;-3.030;2023-04-15T21:51:52;11.50;;;3.17;;
38637;SDS011;24401;53.034;-3.030;2023-04-15T21:54:22;2.80;;;2.60;;
38637;SDS011;24401;53.034;-3.030;2023-04-15T21:56:52;2.73;;;2.53;;
38637;SDS011;24401;53.034;-3.030;2023-04-15T21:59:23;3.70;;;2.50;;
38637;SDS011;24401;53.034;-3.030;2023-04-15T22:01:53;2.90;;;2.70;;
38637;SDS011;24401;53.034;-3.030;2023-04-15T22:04:23;5.00;;;2.13;;
38637;SDS011;24401;53.034;-3.030;2023-04-15T22:06:53;2.97;;;2.77;;
38637;SDS011;24401;53.034;-3.030;2023-04-15T22:09:28;2.90;;;2.50;;
38637;SDS011;24401;53.034;-3.030;2023-04-15T22:11:58;2.93;;;2.73;;
38637;SDS011;24401;53.034;-3.030;2023-04-15T22:14:29;2.73;;;2.57;;
38637;SDS011;24401;53.034;-3.030;2023-04-15T22:16:59;6.70;;;2.70;;
38637;SDS011;24401;53.034;-3.030;2023-04-15T22:19:29;3.40;;;2.73;;
38637;SDS011;24401;53.034;-3.030;2023-04-15T22:22:00;3.30;;;3.00;;
38637;SDS011;24401;53.034;-3.030;2023-04-15T22:24:30;3.43;;;3.20;;
38637;SDS011;24401;53.034;-3.030;2023-04-15T22:27:01;7.87;;;2.67;;
38637;SDS011;24401;53.034;-3.030;2023-04-15T22:29:31;3.37;;;3.07;;
38637;SDS011;24401;53.034;-3.030;2023-04-15T22:32:01;3.90;;;3.53;;
38637;SDS011;24401;53.034;-3.030;2023-04-15T22:34:33;3.73;;;3.40;;
38637;SDS011;24401;53.034;-3.030;2023-04-15T22:37:03;3.40;;;3.10;;
38637;SDS011;24401;53.034;-3.030;2023-04-15T22:39:33;5.53;;;5.03;;
38637;SDS011;24401;53.034;-3.030;2023-04-15T22:42:04;9.23;;;7.50;;
38637;SDS011;24401;53.034;-3.030;2023-04-15T22:44:34;8.27;;;7.30;;
38637;SDS011;24401;53.034;-3.030;2023-04-15T22:47:04;7.50;;;6.87;;
38637;SDS011;24401;53.034;-3.030;2023-04-15T22:49:35;7.00;;;6.40;;
38637;SDS011;24401;53.034;-3.030;2023-04-15T22:52:05;5.40;;;5.00;;
38637;SDS011;24401;53.034;-3.030;2023-04-15T22:54:35;3.60;;;3.30;;
38637;SDS011;24401;53.034;-3.030;2023-04-15T22:57:06;4.90;;;3.53;;
38637;SDS011;24401;53.034;-3.030;2023-04-15T22:59:36;3.00;;;2.80;;
38637;SDS011;24401;53.034;-3.030;2023-04-15T23:02:06;3.73;;;3.43;;
38637;SDS011;24401;53.034;-3.030;2023-04-15T23:04:36;3.07;;;2.30;;
38637;SDS011;24401;53.034;-3.030;2023-04-15T23:07:07;3.23;;;3.03;;
38637;SDS011;24401;53.034;-3.030;2023-04-15T23:09:37;3.00;;;2.80;;
38637;SDS011;24401;53.034;-3.030;2023-04-15T23:12:07;4.47;;;2.83;;
38637;SDS011;24401;53.034;-3.030;2023-04-15T23:14:38;3.07;;;2.87;;
38637;SDS011;24401;53.034;-3.030;2023-04-15T23:17:08;4.07;;;3.57;;
38637;SDS011;24401;53.034;-3.030;2023-04-15T23:19:38;3.13;;;2.93;;
38637;SDS011;24401;53.034;-3.030;2023-04-15T23:22:08;3.67;;;3.33;;
38637;SDS011;24401;53.034;-3.030;2023-04-15T23:24:41;7.60;;;3.55;;
38637;SDS011;24401;53.034;-3.030;2023-04-15T23:27:11;3.10;;;2.90;;
38637;SDS011;24401;53.034;-3.030;2023-04-15T23:29:41;3.30;;;3.03;;
38637;SDS011;24401;53.034;-3.030;2023-04-15T23:32:11;2.57;;;2.43;;
38637;SDS011;24401;53.034;-3.030;2023-04-15T23:34:41;3.67;;;3.37;;
38637;SDS011;24401;53.034;-3.030;2023-04-15T23:37:12;3.40;;;3.20;;
38637;SDS011;24401;53.034;-3.030;2023-04-15T23:39:42;3.50;;;3.20;;
38637;SDS011;24401;53.034;-3.030;2023-04-15T23:42:12;2.90;;;2.70;;
38637;SDS011;24401;53.034;-3.030;2023-04-15T23:44:42;3.20;;;3.00;;
38637;SDS011;24401;53.034;-3.030;2023-04-15T23:47:13;2.90;;;2.70;;
38637;SDS011;24401;53.034;-3.030;2023-04-15T23:49:44;2.97;;;2.37;;
38637;SDS011;24401;53.034;-3.030;2023-04-15T23:52:14;2.60;;;2.50;;
38637;SDS011;24401;53.034;-3.030;2023-04-15T23:54:44;3.03;;;2.40;;
38637;SDS011;24401;53.034;-3.030;2023-04-15T23:57:15;2.97;;;2.63;;
38637;SDS011;24401;53.034;-3.030;2023-04-15T23:59:45;7.13;;;3.33;;
